Time;durP1;ratioP1;P1;durP2;ratioP2;P2;SDS_P1;SDS_P2;PMS_P1;PMS_P2;Temp;Humidity;BMP_temperature;BMP_pressure;BME280_temperature;BME280_humidity;BME280_pressure;Samples;Min_cycle;Max_cycle;Signal;HPM_P1;HPM_P2
2022/08/03 00:10:00;;;;;;;5.17;2.30;;;21.20;62.60;;;;;;20997476;28;20301;-72
2022/08/03 00:20:03;;;;;;;8.50;2.30;;;21.10;63.00;;;;;;20997071;28;20599;-71
2022/08/03 00:30:06;;;;;;;4.87;2.30;;;20.90;63.50;;;;;;20983276;28;20202;-72
2022/08/03 00:40:15;;;;;;;2.97;2.50;;;20.70;64.30;;;;;;20981443;28;20260;-71
2022/08/03 00:50:18;;;;;;;3.63;2.47;;;20.60;64.60;;;;;;20995800;28;20242;-71
2022/08/03 01:00:23;;;;;;;5.47;2.53;;;20.60;64.90;;;;;;20994919;28;20340;-72
2022/08/03 01:10:51;;;;;;;4.33;2.60;;;20.40;64.90;;;;;;20994978;28;20208;-71
2022/08/03 01:20:57;;;;;;;3.90;2.40;;;20.20;65.40;;;;;;20952318;28;20589;-71
2022/08/03 01:31:05;;;;;;;5.03;2.33;;;20.20;66.20;;;;;;20908588;28;20221;-70
2022/08/03 01:41:12;;;;;;;3.40;2.63;;;20.20;66.30;;;;;;20910817;28;20572;-72
2022/08/03 01:51:17;;;;;;;5.33;2.70;;;20.10;67.30;;;;;;20924077;28;20315;-71
2022/08/03 02:01:21;;;;;;;3.23;2.70;;;19.80;67.60;;;;;;20925171;28;20239;-70
2022/08/03 02:11:23;;;;;;;2.43;2.20;;;19.80;68.20;;;;;;20924375;28;20205;-70
2022/08/03 02:21:27;;;;;;;3.93;2.30;;;19.70;68.40;;;;;;20922966;28;20248;-71
2022/08/03 02:31:51;;;;;;;3.47;2.67;;;19.60;68.90;;;;;;20922443;28;20214;-72
2022/08/03 02:42:01;;;;;;;5.27;2.50;;;19.50;68.70;;;;;;20921069;28;20233;-71
2022/08/03 02:52:08;;;;;;;3.00;2.30;;;19.50;69.40;;;;;;20921468;28;20229;-71
2022/08/03 03:02:15;;;;;;;3.83;2.87;;;19.20;70.40;;;;;;20920498;28;20232;-70
2022/08/03 03:12:18;;;;;;;4.93;2.70;;;19.10;71.20;;;;;;20919829;28;20220;-71
2022/08/03 03:22:23;;;;;;;4.60;2.80;;;19.10;70.90;;;;;;20959535;28;20336;-72
2022/08/03 03:32:31;;;;;;;4.60;2.73;;;19.00;71.40;;;;;;20999095;28;20289;-71
2022/08/03 03:42:33;;;;;;;3.13;2.80;;;19.00;72.50;;;;;;21000347;28;20318;-71
2022/08/03 03:52:35;;;;;;;3.57;3.00;;;18.80;73.00;;;;;;20932784;28;20237;-71
2022/08/03 04:02:38;;;;;;;5.77;2.83;;;18.50;73.90;;;;;;20916240;28;20239;-71
2022/08/03 04:12:41;;;;;;;8.87;3.20;;;18.50;74.00;;;;;;20914496;28;20288;-71
2022/08/03 04:22:55;;;;;;;5.30;2.90;;;18.50;74.50;;;;;;20914869;28;20240;-71
2022/08/03 04:32:57;;;;;;;6.23;2.80;;;18.60;74.90;;;;;;20915514;28;20287;-72
2022/08/03 04:43:00;;;;;;;8.77;3.47;;;18.60;75.50;;;;;;20914350;28;20695;-72
2022/08/03 04:53:04;;;;;;;5.97;4.00;;;18.70;75.60;;;;;;20950039;28;20671;-72
2022/08/03 05:03:07;;;;;;;6.80;4.03;;;18.80;75.90;;;;;;20997211;28;20283;-72
2022/08/03 05:13:24;;;;;;;11.77;4.10;;;18.80;76.20;;;;;;20995062;28;20652;-71
2022/08/03 05:23:26;;;;;;;5.37;3.30;;;18.90;76.20;;;;;;20951015;28;20248;-72
2022/08/03 05:33:28;;;;;;;9.80;3.93;;;19.10;76.00;;;;;;20925956;28;20221;-76
2022/08/03 05:43:30;;;;;;;9.10;3.70;;;19.50;75.70;;;;;;20927320;28;20603;-73
2022/08/03 05:53:33;;;;;;;24.90;4.87;;;19.70;75.40;;;;;;20926618;28;20240;-72
2022/08/03 06:03:35;;;;;;;21.03;4.43;;;19.80;74.50;;;;;;20908271;28;20234;-73
2022/08/03 06:13:37;;;;;;;8.70;4.20;;;19.90;74.60;;;;;;20924294;28;20659;-70
2022/08/03 06:23:41;;;;;;;28.47;4.20;;;20.10;74.20;;;;;;20924296;28;20706;-73
2022/08/03 06:33:56;;;;;;;8.87;3.57;;;20.50;73.30;;;;;;20923237;28;20215;-70
2022/08/03 06:44:17;;;;;;;15.87;4.97;;;20.70;71.90;;;;;;20922317;28;20241;-72
2022/08/03 06:54:21;;;;;;;12.87;4.03;;;21.20;70.80;;;;;;20920773;28;20335;-75
2022/08/03 07:04:23;;;;;;;13.93;4.10;;;21.50;69.40;;;;;;20920983;28;20237;-72
2022/08/03 07:14:26;;;;;;;10.13;4.37;;;21.80;68.30;;;;;;20946245;28;20204;-74
2022/08/03 07:24:29;;;;;;;11.07;4.40;;;22.00;67.30;;;;;;20979832;28;20242;-75
2022/08/03 07:34:31;;;;;;;15.67;3.70;;;22.30;67.00;;;;;;20977986;28;20215;-76
2022/08/03 07:44:33;;;;;;;7.37;2.87;;;22.60;66.30;;;;;;20967068;28;20231;-74
2022/08/03 07:54:34;;;;;;;7.80;3.10;;;22.90;65.30;;;;;;20955721;28;20211;-75
2022/08/03 08:04:36;;;;;;;9.37;3.40;;;23.30;64.30;;;;;;20968676;28;20239;-71
2022/08/03 08:14:38;;;;;;;8.17;3.67;;;23.60;63.50;;;;;;20920282;28;20291;-75
2022/08/03 08:24:42;;;;;;;6.70;2.73;;;24.00;62.60;;;;;;20914104;28;20258;-73
2022/08/03 08:34:45;;;;;;;4.57;2.67;;;24.30;61.20;;;;;;20914555;28;20208;-73
2022/08/03 08:44:47;;;;;;;4.87;3.00;;;24.70;60.00;;;;;;20912236;28;20236;-72
2022/08/03 08:54:49;;;;;;;4.33;2.30;;;25.00;59.00;;;;;;20920526;28;20625;-75
2022/08/03 09:04:52;;;;;;;9.77;4.13;;;25.30;57.30;;;;;;20938277;28;20698;-73
2022/08/03 09:14:54;;;;;;;3.73;3.07;;;25.70;56.40;;;;;;20939163;28;20199;-74
2022/08/03 09:25:17;;;;;;;7.07;2.80;;;26.00;55.60;;;;;;20937921;28;20327;-72
2022/08/03 09:35:28;;;;;;;4.40;2.90;;;26.30;55.10;;;;;;20939432;28;20655;-74
2022/08/03 09:46:00;;;;;;;2.80;2.57;;;26.70;54.80;;;;;;20922472;28;20243;-71
2022/08/03 09:56:02;;;;;;;2.60;2.27;;;27.00;54.30;;;;;;20936535;28;20290;-73
2022/08/03 10:06:25;;;;;;;5.17;2.40;;;27.30;53.60;;;;;;20930960;28;20242;-74
2022/08/03 10:16:34;;;;;;;3.73;2.40;;;27.60;52.80;;;;;;20923409;28;20262;-73
2022/08/03 10:26:43;;;;;;;9.43;2.40;;;27.90;52.20;;;;;;20923053;28;20236;-74
2022/08/03 10:36:55;;;;;;;2.20;2.00;;;28.10;51.70;;;;;;20921805;28;20257;-75
2022/08/03 10:46:56;;;;;;;4.80;1.90;;;28.30;51.30;;;;;;20913464;28;20665;-73
2022/08/03 11:07:24;;;;;;;2.75;1.92;;;28.70;50.40;;;;;;20919689;28;20241;-73
2022/08/03 11:17:26;;;;;;;2.85;2.25;;;28.90;49.90;;;;;;20917451;28;20208;-73
2022/08/03 11:27:32;;;;;;;9.10;3.00;;;28.90;49.50;;;;;;20914630;28;20235;-73
2022/08/03 11:37:35;;;;;;;2.45;2.10;;;29.00;49.70;;;;;;20915484;28;20294;-73
2022/08/03 11:47:38;;;;;;;2.75;2.22;;;29.10;49.50;;;;;;20916491;28;20694;-74
2022/08/03 11:57:57;;;;;;;6.20;2.78;;;29.30;49.20;;;;;;20914905;28;20211;-74
2022/08/03 12:08:29;;;;;;;2.10;1.90;;;29.70;48.70;;;;;;20915958;28;20274;-72
2022/08/03 12:18:32;;;;;;;6.60;2.17;;;30.10;47.90;;;;;;20914437;28;20250;-73
2022/08/03 12:28:34;;;;;;;4.50;1.90;;;30.30;47.50;;;;;;20912609;28;20298;-72
2022/08/03 12:38:38;;;;;;;2.83;2.00;;;30.60;46.40;;;;;;20914723;28;20610;-74
2022/08/03 12:49:14;;;;;;;3.55;1.90;;;30.80;45.70;;;;;;20912446;28;20751;-73
2022/08/03 12:59:27;;;;;;;5.32;2.20;;;30.70;45.50;;;;;;20912164;28;20297;-73
2022/08/03 13:09:44;;;;;;;3.22;2.83;;;30.70;45.50;;;;;;20912768;28;20207;-74
2022/08/03 13:19:47;;;;;;;5.97;2.58;;;30.70;45.70;;;;;;20975722;28;20230;-75
2022/08/03 13:29:49;;;;;;;3.83;2.13;;;30.60;45.90;;;;;;20992428;28;20199;-74
2022/08/03 13:39:51;;;;;;;5.70;2.80;;;30.50;46.00;;;;;;20995250;28;20313;-71
2022/08/03 13:50:00;;;;;;;2.47;2.28;;;30.60;45.90;;;;;;21007876;28;20227;-72
2022/08/03 14:00:05;;;;;;;5.63;2.47;;;30.70;45.60;;;;;;21007607;28;20266;-74
2022/08/03 14:10:07;;;;;;;4.38;2.22;;;30.80;45.60;;;;;;21006681;28;20766;-75
2022/08/03 14:20:11;;;;;;;3.72;2.38;;;30.90;45.60;;;;;;21010989;28;20235;-75
2022/08/03 14:30:34;;;;;;;2.28;2.00;;;30.90;45.60;;;;;;21007453;28;20235;-73
2022/08/03 14:40:36;;;;;;;3.22;2.05;;;31.20;45.50;;;;;;21004531;28;20591;-74
2022/08/03 14:50:38;;;;;;;5.28;2.10;;;31.80;44.80;;;;;;21003820;28;20235;-73
2022/08/03 15:00:46;;;;;;;3.80;2.00;;;31.50;44.70;;;;;;21003160;28;20301;-72
2022/08/03 15:10:48;;;;;;;4.93;2.00;;;33.80;42.50;;;;;;21002165;28;20286;-74
2022/08/03 15:20:50;;;;;;;2.47;2.00;;;32.50;43.30;;;;;;20994945;28;20270;-73
2022/08/03 15:30:52;;;;;;;2.25;1.90;;;31.90;43.90;;;;;;21000034;28;20655;-72
2022/08/03 15:40:54;;;;;;;4.20;3.35;;;31.40;44.40;;;;;;21000255;28;20321;-71
2022/08/03 15:50:55;;;;;;;2.72;2.53;;;31.10;44.80;;;;;;20999391;28;20269;-73
2022/08/03 16:00:58;;;;;;;2.30;2.10;;;31.00;45.10;;;;;;20981653;28;20326;-72
2022/08/03 16:11:00;;;;;;;5.30;4.80;;;30.90;45.30;;;;;;20997407;28;20207;-73
2022/08/03 16:21:02;;;;;;;3.17;1.90;;;30.80;45.20;;;;;;20997070;28;20334;-73
2022/08/03 16:31:04;;;;;;;5.35;1.90;;;30.70;45.50;;;;;;20997365;28;20210;-74
2022/08/03 16:41:06;;;;;;;2.30;2.10;;;30.60;45.50;;;;;;20996448;28;20778;-70
2022/08/03 16:51:08;;;;;;;6.88;2.45;;;30.60;45.50;;;;;;20996387;28;20702;-72
2022/08/03 17:01:12;;;;;;;3.22;1.88;;;30.60;45.60;;;;;;20996178;28;20235;-73
2022/08/03 17:11:30;;;;;;;2.20;1.60;;;30.50;45.70;;;;;;21040016;28;20232;-74
2022/08/03 17:21:36;;;;;;;4.43;2.10;;;30.50;45.60;;;;;;21020102;28;20239;-74
2022/08/03 17:31:41;;;;;;;2.33;2.13;;;30.40;45.60;;;;;;20993602;28;20218;-73
2022/08/03 17:41:50;;;;;;;3.42;3.00;;;30.20;45.90;;;;;;21009263;28;20661;-73
2022/08/03 17:52:05;;;;;;;4.45;2.92;;;30.10;46.10;;;;;;20988832;28;20236;-74
2022/08/03 18:13:10;;;;;;;2.83;2.60;;;29.90;46.60;;;;;;20979642;28;20212;-74
2022/08/03 18:23:13;;;;;;;3.30;3.00;;;29.80;46.60;;;;;;20934690;28;20301;-73
2022/08/03 18:33:39;;;;;;;5.85;3.10;;;29.60;47.30;;;;;;20925424;28;20253;-75
2022/08/03 18:44:05;;;;;;;8.80;2.28;;;29.40;48.40;;;;;;20922588;28;20247;-73
2022/08/03 18:54:19;;;;;;;5.80;2.58;;;29.20;48.90;;;;;;20954411;28;20238;-71
2022/08/03 19:04:51;;;;;;;6.17;2.83;;;28.90;50.10;;;;;;20997352;28;20306;-71
2022/08/03 19:15:08;;;;;;;5.83;2.93;;;28.70;51.30;;;;;;20963067;28;20706;-73
2022/08/03 19:25:15;;;;;;;4.65;3.10;;;28.40;52.70;;;;;;21002330;28;20242;-71
2022/08/03 19:35:17;;;;;;;3.53;2.70;;;28.20;53.20;;;;;;20927767;28;20211;-72
2022/08/03 19:45:27;;;;;;;8.23;2.80;;;28.00;53.40;;;;;;20917519;28;20703;-72
2022/08/03 19:55:52;;;;;;;7.30;2.47;;;27.80;53.80;;;;;;20918375;28;20711;-72
2022/08/03 20:05:54;;;;;;;9.80;3.10;;;27.70;54.60;;;;;;20941598;28;20745;-72
2022/08/03 20:15:56;;;;;;;8.07;2.50;;;27.40;55.00;;;;;;20998886;28;20211;-73
2022/08/03 20:25:59;;;;;;;4.70;2.97;;;27.20;55.70;;;;;;21006916;28;20258;-72
2022/08/03 20:36:02;;;;;;;5.23;3.23;;;27.00;56.90;;;;;;20998486;28;20207;-73
2022/08/03 20:46:05;;;;;;;6.83;2.77;;;26.80;57.10;;;;;;20997458;28;20235;-72
2022/08/03 20:56:32;;;;;;;4.60;2.80;;;26.60;57.20;;;;;;20981142;28;20207;-73
2022/08/03 21:06:39;;;;;;;6.57;2.60;;;26.40;57.70;;;;;;20964246;28;20242;-72
2022/08/03 21:16:44;;;;;;;4.90;2.70;;;26.20;58.10;;;;;;20912468;28;20269;-72
2022/08/03 21:26:47;;;;;;;3.10;2.57;;;26.00;58.30;;;;;;20913120;28;20235;-72
2022/08/03 21:36:49;;;;;;;6.60;2.77;;;26.00;58.70;;;;;;20934229;28;20238;-72
2022/08/03 21:46:52;;;;;;;6.87;2.97;;;25.70;59.10;;;;;;20990663;28;20285;-72
2022/08/03 21:57:01;;;;;;;4.13;3.00;;;25.60;59.60;;;;;;20993751;28;20610;-73
2022/08/03 22:07:03;;;;;;;5.37;2.87;;;25.30;60.30;;;;;;21003921;28;20285;-72
2022/08/03 22:17:06;;;;;;;4.80;2.70;;;25.20;61.00;;;;;;20993307;28;20655;-73
2022/08/03 22:27:29;;;;;;;8.03;2.80;;;25.10;61.30;;;;;;20980191;28;20698;-73
2022/08/03 22:37:32;;;;;;;5.03;2.80;;;25.00;62.00;;;;;;21005946;28;20211;-73
2022/08/03 22:47:35;;;;;;;3.20;2.90;;;24.80;62.70;;;;;;21004684;28;20246;-72
2022/08/03 22:57:37;;;;;;;5.03;2.90;;;24.70;63.60;;;;;;21004430;28;20199;-72
2022/08/03 23:07:40;;;;;;;3.50;3.00;;;24.50;64.60;;;;;;21003312;28;20314;-72
2022/08/03 23:17:51;;;;;;;8.97;2.80;;;24.40;65.30;;;;;;21002424;28;20203;-72
2022/08/03 23:28:00;;;;;;;3.77;2.80;;;24.20;65.60;;;;;;20994873;28;20687;-72
2022/08/03 23:38:07;;;;;;;4.37;3.00;;;24.00;65.80;;;;;;21006072;28;20210;-74
2022/08/03 23:48:24;;;;;;;4.60;2.80;;;23.90;66.60;;;;;;21015473;28;20247;-72
2022/08/03 23:58:50;;;;;;;3.70;2.50;;;23.90;66.90;;;;;;20999344;28;20235;-72
